Allensburg, Ohio
Current Conditions -  °F | °C
As of 3:54 AM on Monday 20 Oct 2014 (Local Time) from KILN Reporting Station
Clear Clear  
Wind Chill: 45°   Ceiling: Unl
Heat Index: 45°   Visibility: 10mi
Dew Point: 40°   Wind: 3mph
Humidity: 82%   Direction: 200°SSW
Pressure: 30.03"   Gusts: NA
Location:  39.1546°N, 83.569°W
Report Text: KILN 200754Z AUTO 20003KT 10SM CLR 07/04 A3003 RMK AO2 SLP180 T00720044
Loading
Personal Weather Stations






























Interactive Weather Map New forecast layout! Learn more

10-Day Weather Forecast

Advertisements
Track Severe Weather on mobile